Minneapolis/St.Paul Radar Regional Satellite Twin Cities Traffic Info Map
Radar Satellite Traffic Traffic Cams
KLVN - Lakeville, Minnesota, USA
Distance from station: ENE 4mi, 6km
Updated: Sat, 18-Nov-2017 6:30pm CST
Mostly Cloudy
Mostly Cloudy
 Wind from WNW
Wind: WNW 15 mph , 24 km/h, Gust: 22 mph , 35 km/h
Temperature: 27°F , -3°C
Wind Chill: 15°F , -9°C
Dew Point: 18°F , -8°C
Humidity: 69%
Barometer: 29.97 inHg , 1014.9 hPa
Clouds: Mostly Cloudy
Visibility: 10 miles , 16 km
Cloud details: Mostly Cloudy 3300 ft
2017/11/19 00:30 KLVN 190030Z AUTO 30013G19KT 10SM BKN033 M03/M08 A2997 RMK AO2
KFCM - Eden Prairie, Minnesota, USA
Distance from station: NNW 17mi, 28km
Updated: Sat, 18-Nov-2017 5:53pm CST
Few Clouds
Few Clouds
 Wind from WNW
Wind: WNW 17 mph , 28 km/h, Gust: 25 mph , 41 km/h
Temperature: 28°F , -2°C
Wind Chill: 16°F , -9°C
Dew Point: 16°F , -9°C
Humidity: 59%
Barometer: 29.96 inHg , 1014.6 hPa
Clouds: Few Clouds
Visibility: 10 miles , 16 km
Cloud details: Few Clouds 3100 ft
2017/11/18 23:53 KFCM 182353Z 30015G22KT 10SM FEW031 M02/M09 A2996 RMK AO2 SLP156 T10171089 10028 21017 53031
 
KSYN - Stanton, Minnesota, USA
Distance from station: SE 18mi, 28km
Updated: Sat, 18-Nov-2017 6:32pm CST
Partly Cloudy
Partly Cloudy
 Wind from WNW
Wind: WNW 10 mph , 17 km/h, Gust: 18 mph , 30 km/h
Temperature: 28°F , -2°C
Wind Chill: 19°F , -7°C
Dew Point: 19°F , -7°C
Humidity: 69%
Barometer: 29.96 inHg , 1014.6 hPa
Clouds: Partly Cloudy
Visibility: 10 miles , 16 km
Cloud details: Partly Cloudy 3300 ft
2017/11/19 00:32 KSYN 190032Z AUTO 30009G16KT 10SM SCT033 M02/M07 A2996 RMK AO2 T10171069
KFBL - Faribault, Minnesota, USA
Distance from station: S 19mi, 31km
Updated: Sat, 18-Nov-2017 6:34pm CST
Mostly Cloudy
Mostly Cloudy
 Wind from WNW
Wind: WNW 15 mph , 24 km/h, Gust: 21 mph , 33 km/h
Temperature: 27°F , -3°C
Wind Chill: 15°F , -9°C
Dew Point: 18°F , -8°C
Humidity: 69%
Barometer: 29.98 inHg , 1015.2 hPa
Clouds: Mostly Cloudy
Visibility: 10 miles , 16 km
Cloud details: Mostly Cloudy 3100 ft
2017/11/19 00:34 KFBL 190034Z AUTO 29013G18KT 10SM BKN031 M03/M08 A2998 RMK AO2
 
KMSP - Minneapolis, Minnesota, USA
Distance from station: N 19mi, 31km
Updated: Sat, 18-Nov-2017 5:53pm CST
Few Clouds
Few Clouds
 Wind from NW
Wind: NW 16 mph , 26 km/h
Temperature: 28°F , -2°C
Wind Chill: 16°F , -9°C
Dew Point: 18°F , -8°C
Humidity: 64%
Barometer: 29.96 inHg , 1014.6 hPa
Clouds: Few Clouds
Visibility: 10 miles , 16 km
Cloud details: Few Clouds 4000 ft
2017/11/18 23:53 KMSP 182353Z 32014KT 10SM FEW040 M02/M08 A2996 RMK AO2 SLP156 T10221083 10028 21022 53031